Time;durP1;ratioP1;P1;durP2;ratioP2;P2;SDS_P1;SDS_P2;PMS_P1;PMS_P2;Temp;Humidity;BMP_temperature;BMP_pressure;BME280_temperature;BME280_humidity;BME280_pressure;Samples;Min_cycle;Max_cycle;Signal;HPM_P1;HPM_P2
2023/10/01 00:00:37;;;;;;;11.48;6.63;;;;;;;;;;5054856;28;20511;-62
2023/10/01 00:03:06;;;;;;;13.20;7.13;;;;;;;;;;5054477;28;20454;-60
2023/10/01 00:05:33;;;;;;;11.30;6.55;;;;;;;;;;5054071;28;20799;-61
2023/10/01 00:08:01;;;;;;;8.95;6.53;;;;;;;;;;5053258;28;20424;-62
2023/10/01 00:10:28;;;;;;;9.80;6.60;;;;;;;;;;5051450;28;20445;-62
2023/10/01 00:12:57;;;;;;;10.65;6.50;;;;;;;;;;5054088;28;20891;-61
2023/10/01 00:15:26;;;;;;;9.55;6.78;;;;;;;;;;5053320;28;20880;-62
2023/10/01 00:17:53;;;;;;;9.70;6.65;;;;;;;;;;5054068;28;20450;-61
2023/10/01 00:20:25;;;;;;;8.75;6.57;;;;;;;;;;5054573;28;20486;-62
2023/10/01 00:22:54;;;;;;;11.13;7.20;;;;;;;;;;5057238;28;20559;-61
2023/10/01 00:25:23;;;;;;;11.68;7.05;;;;;;;;;;5053924;28;20417;-60
2023/10/01 00:27:50;;;;;;;10.85;6.80;;;;;;;;;;5056314;28;20498;-61
2023/10/01 00:30:18;;;;;;;11.85;6.95;;;;;;;;;;5056121;28;20784;-62
2023/10/01 00:32:45;;;;;;;9.67;6.27;;;;;;;;;;5054481;28;20439;-60
2023/10/01 00:35:12;;;;;;;10.25;6.70;;;;;;;;;;5059141;28;20412;-61
2023/10/01 00:37:41;;;;;;;11.63;7.20;;;;;;;;;;5059499;28;20465;-61
2023/10/01 00:40:10;;;;;;;9.95;6.60;;;;;;;;;;5056320;28;20459;-62
2023/10/01 00:42:38;;;;;;;9.88;6.95;;;;;;;;;;5053752;28;20413;-62
2023/10/01 00:45:07;;;;;;;10.52;6.50;;;;;;;;;;5053390;28;20414;-62
2023/10/01 00:47:35;;;;;;;9.73;7.22;;;;;;;;;;5053504;28;20900;-61
2023/10/01 00:50:05;;;;;;;13.23;7.30;;;;;;;;;;5053583;28;20412;-62
2023/10/01 00:52:32;;;;;;;9.38;7.00;;;;;;;;;;5055888;28;20411;-61
2023/10/01 00:55:00;;;;;;;10.18;6.70;;;;;;;;;;5055199;28;20471;-62
2023/10/01 00:57:27;;;;;;;11.45;7.03;;;;;;;;;;5053653;28;20496;-61
2023/10/01 00:59:54;;;;;;;11.10;6.93;;;;;;;;;;5053396;28;20417;-62
2023/10/01 01:02:22;;;;;;;12.57;7.70;;;;;;;;;;5053275;28;20417;-61
2023/10/01 01:05:05;;;;;;;10.25;7.20;;;;;;;;;;5049534;28;20405;-62
2023/10/01 01:07:32;;;;;;;9.97;7.17;;;;;;;;;;5045702;28;20421;-62
2023/10/01 01:10:06;;;;;;;10.18;6.93;;;;;;;;;;5053023;28;20915;-62
2023/10/01 01:12:33;;;;;;;9.25;6.57;;;;;;;;;;5052965;28;20509;-62
2023/10/01 01:15:01;;;;;;;10.38;6.18;;;;;;;;;;5052777;28;20463;-62
2023/10/01 01:17:27;;;;;;;9.30;6.80;;;;;;;;;;5053013;28;20416;-62
2023/10/01 01:19:55;;;;;;;11.45;6.95;;;;;;;;;;5052990;28;20405;-62
2023/10/01 01:22:29;;;;;;;10.35;6.82;;;;;;;;;;5052636;28;20495;-61
2023/10/01 01:24:57;;;;;;;11.57;6.80;;;;;;;;;;5052393;28;20467;-62
2023/10/01 01:27:24;;;;;;;10.35;6.78;;;;;;;;;;5052047;28;20479;-61
2023/10/01 01:29:51;;;;;;;9.88;7.05;;;;;;;;;;5052693;28;20409;-60
2023/10/01 01:32:19;;;;;;;13.05;7.10;;;;;;;;;;5052707;28;20424;-61
2023/10/01 01:34:47;;;;;;;11.43;6.90;;;;;;;;;;5052531;28;20771;-62
2023/10/01 01:37:19;;;;;;;11.43;7.07;;;;;;;;;;5052319;28;20888;-62
2023/10/01 01:39:50;;;;;;;11.88;7.70;;;;;;;;;;5045772;28;20409;-62
2023/10/01 01:42:21;;;;;;;9.07;6.88;;;;;;;;;;5052319;28;20417;-61
2023/10/01 01:44:48;;;;;;;12.05;7.15;;;;;;;;;;5052138;28;20459;-61
2023/10/01 01:47:15;;;;;;;11.50;7.38;;;;;;;;;;5052039;28;20504;-62
2023/10/01 01:49:43;;;;;;;13.43;8.57;;;;;;;;;;5052162;28;20459;-61
2023/10/01 01:52:11;;;;;;;14.43;8.13;;;;;;;;;;5052721;28;20417;-62
2023/10/01 01:54:40;;;;;;;12.33;7.77;;;;;;;;;;5059476;28;20477;-61
2023/10/01 01:57:14;;;;;;;12.45;7.65;;;;;;;;;;5052182;28;20410;-61
2023/10/01 01:59:41;;;;;;;11.80;7.57;;;;;;;;;;5052004;28;20445;-61
2023/10/01 02:02:10;;;;;;;12.50;8.53;;;;;;;;;;5051930;28;20840;-61
2023/10/01 02:04:58;;;;;;;11.38;8.02;;;;;;;;;;5048603;28;20409;-61
2023/10/01 02:07:24;;;;;;;11.70;7.38;;;;;;;;;;5048532;28;20815;-62
2023/10/01 02:09:52;;;;;;;11.93;7.53;;;;;;;;;;5052169;28;20409;-62
2023/10/01 02:12:24;;;;;;;14.38;8.00;;;;;;;;;;5048013;28;20876;-62
2023/10/01 02:14:54;;;;;;;12.48;7.97;;;;;;;;;;5051583;28;20463;-62
2023/10/01 02:17:22;;;;;;;11.32;7.75;;;;;;;;;;5044644;28;20868;-62
2023/10/01 02:19:49;;;;;;;12.60;7.95;;;;;;;;;;5052087;28;20409;-62
2023/10/01 02:22:17;;;;;;;13.48;8.13;;;;;;;;;;5051789;28;20427;-62
2023/10/01 02:24:55;;;;;;;11.82;7.10;;;;;;;;;;5051571;28;20508;-62
2023/10/01 02:27:26;;;;;;;10.93;7.53;;;;;;;;;;5050516;28;20425;-62
2023/10/01 02:32:49;;;;;;;10.95;7.53;;;;;;;;;;5051319;28;20538;-61
2023/10/01 02:37:58;;;;;;;13.02;7.22;;;;;;;;;;5049607;28;20404;-62
2023/10/01 02:40:26;;;;;;;14.93;7.50;;;;;;;;;;5047708;28;20437;-62
2023/10/01 02:42:56;;;;;;;13.35;7.75;;;;;;;;;;5051272;28;20409;-62
2023/10/01 02:45:33;;;;;;;11.40;7.32;;;;;;;;;;5051371;28;20414;-62
2023/10/01 02:48:16;;;;;;;12.55;7.97;;;;;;;;;;5050923;28;20461;-61
2023/10/01 02:50:48;;;;;;;12.23;7.70;;;;;;;;;;5051552;28;20899;-62
2023/10/01 02:53:19;;;;;;;14.07;7.68;;;;;;;;;;5054370;28;20413;-62
2023/10/01 02:55:46;;;;;;;12.50;8.52;;;;;;;;;;5051185;28;20420;-62
2023/10/01 02:58:17;;;;;;;13.23;7.73;;;;;;;;;;5050228;28;20424;-62
2023/10/01 03:00:45;;;;;;;12.10;7.53;;;;;;;;;;5050933;28;20413;-62
2023/10/01 03:03:15;;;;;;;12.10;7.78;;;;;;;;;;5051060;28;20420;-62
2023/10/01 03:05:45;;;;;;;10.98;7.35;;;;;;;;;;5050979;28;20417;-62
2023/10/01 03:08:25;;;;;;;10.32;7.30;;;;;;;;;;5051046;28;20931;-62
2023/10/01 03:10:56;;;;;;;12.77;7.22;;;;;;;;;;5047922;28;20483;-62
2023/10/01 03:13:30;;;;;;;11.65;7.40;;;;;;;;;;5051283;28;20428;-62
2023/10/01 03:18:38;;;;;;;11.73;7.20;;;;;;;;;;5048416;28;20400;-61
2023/10/01 03:21:07;;;;;;;9.98;7.03;;;;;;;;;;5051024;28;20417;-62
2023/10/01 03:23:35;;;;;;;10.45;7.03;;;;;;;;;;5052651;28;20421;-61
2023/10/01 03:26:04;;;;;;;11.55;6.97;;;;;;;;;;5050497;28;20417;-61
2023/10/01 03:28:35;;;;;;;11.40;6.90;;;;;;;;;;5051049;28;20787;-62
2023/10/01 03:31:06;;;;;;;12.43;6.93;;;;;;;;;;5050540;28;20440;-62
2023/10/01 03:33:37;;;;;;;10.77;6.40;;;;;;;;;;5050526;28;20417;-62
2023/10/01 03:36:05;;;;;;;10.93;6.80;;;;;;;;;;5050471;28;20415;-62
2023/10/01 03:38:35;;;;;;;10.90;6.55;;;;;;;;;;5050446;28;20410;-62
2023/10/01 03:41:07;;;;;;;10.23;6.30;;;;;;;;;;5050571;28;20449;-62
2023/10/01 03:43:36;;;;;;;10.82;6.10;;;;;;;;;;5050664;28;20507;-62
2023/10/01 03:46:19;;;;;;;9.77;6.28;;;;;;;;;;5050326;28;20519;-62
2023/10/01 03:48:58;;;;;;;9.65;5.38;;;;;;;;;;5050586;28;20425;-61
2023/10/01 03:54:13;;;;;;;9.90;5.70;;;;;;;;;;5056153;28;20396;-62
2023/10/01 03:56:45;;;;;;;11.00;5.60;;;;;;;;;;5052884;28;20413;-62
2023/10/01 03:59:16;;;;;;;10.23;6.00;;;;;;;;;;5050263;28;20907;-61
2023/10/01 04:01:58;;;;;;;9.27;5.40;;;;;;;;;;5050406;28;20922;-62
2023/10/01 04:04:27;;;;;;;7.72;5.05;;;;;;;;;;5051010;28;20409;-62
2023/10/01 04:06:55;;;;;;;9.02;5.38;;;;;;;;;;5056231;28;20413;-62
2023/10/01 04:09:26;;;;;;;9.32;5.88;;;;;;;;;;5053834;28;20413;-61
2023/10/01 04:12:18;;;;;;;9.13;5.40;;;;;;;;;;5057356;28;20463;-62
2023/10/01 04:14:48;;;;;;;8.10;5.40;;;;;;;;;;5054360;28;20485;-62
2023/10/01 04:17:17;;;;;;;10.60;5.40;;;;;;;;;;5055873;28;20478;-61
2023/10/01 04:19:44;;;;;;;7.95;4.90;;;;;;;;;;5054059;28;20458;-62
2023/10/01 04:22:10;;;;;;;8.77;4.93;;;;;;;;;;5054364;28;20559;-62
2023/10/01 04:24:37;;;;;;;7.82;5.05;;;;;;;;;;5053512;28;20850;-62
2023/10/01 04:27:23;;;;;;;9.65;5.47;;;;;;;;;;5053888;28;20427;-62
2023/10/01 04:29:57;;;;;;;7.47;5.28;;;;;;;;;;5051678;28;20465;-62
2023/10/01 04:32:27;;;;;;;9.68;5.65;;;;;;;;;;5053744;28;20499;-62
2023/10/01 04:34:54;;;;;;;10.45;5.32;;;;;;;;;;5053665;28;20446;-62
2023/10/01 04:37:36;;;;;;;8.52;4.72;;;;;;;;;;5049918;28;20968;-62
2023/10/01 04:40:05;;;;;;;8.07;5.03;;;;;;;;;;5049859;28;20401;-61
2023/10/01 04:42:33;;;;;;;7.50;5.32;;;;;;;;;;5053354;28;20449;-62
2023/10/01 04:45:22;;;;;;;8.90;5.00;;;;;;;;;;5053097;28;20506;-62
2023/10/01 04:47:48;;;;;;;8.80;4.93;;;;;;;;;;5050007;28;20985;-62
2023/10/01 04:50:17;;;;;;;8.25;4.70;;;;;;;;;;5053736;28;20837;-62
2023/10/01 04:52:44;;;;;;;8.23;5.00;;;;;;;;;;5053077;28;20443;-62
2023/10/01 04:55:14;;;;;;;8.30;4.93;;;;;;;;;;5057224;28;21190;-62
2023/10/01 04:57:41;;;;;;;8.13;5.10;;;;;;;;;;5053221;28;20492;-62
2023/10/01 05:00:10;;;;;;;9.35;4.82;;;;;;;;;;5053206;28;20467;-62
2023/10/01 05:02:43;;;;;;;7.55;4.70;;;;;;;;;;5053204;28;20504;-62
2023/10/01 05:05:10;;;;;;;8.17;4.47;;;;;;;;;;5053061;28;20581;-62
2023/10/01 05:07:37;;;;;;;8.98;4.50;;;;;;;;;;5052955;28;20982;-62
2023/10/01 05:10:07;;;;;;;8.43;4.90;;;;;;;;;;5053258;28;20458;-62
2023/10/01 05:12:43;;;;;;;8.57;4.90;;;;;;;;;;5053303;28;20452;-62
2023/10/01 05:15:21;;;;;;;7.32;4.82;;;;;;;;;;5052547;28;20884;-62
2023/10/01 05:17:48;;;;;;;9.17;5.00;;;;;;;;;;5050381;28;20961;-62
2023/10/01 05:20:15;;;;;;;9.73;4.85;;;;;;;;;;5051860;28;20413;-62
2023/10/01 05:22:50;;;;;;;9.50;4.93;;;;;;;;;;5055701;28;20408;-62
2023/10/01 05:25:18;;;;;;;8.48;4.45;;;;;;;;;;5054164;28;20508;-62
2023/10/01 05:27:46;;;;;;;9.43;4.60;;;;;;;;;;5052819;28;20425;-62
2023/10/01 05:32:55;;;;;;;6.82;4.57;;;;;;;;;;5052371;28;20405;-62
2023/10/01 05:35:23;;;;;;;7.97;4.83;;;;;;;;;;5052761;28;20463;-61
2023/10/01 05:37:50;;;;;;;7.80;4.60;;;;;;;;;;5052597;28;20459;-62
2023/10/01 05:40:18;;;;;;;7.65;4.68;;;;;;;;;;5052611;28;20557;-62
2023/10/01 05:42:49;;;;;;;8.98;5.05;;;;;;;;;;5052673;28;20471;-62
2023/10/01 05:45:19;;;;;;;6.70;4.38;;;;;;;;;;5052658;28;20807;-62
2023/10/01 05:47:51;;;;;;;8.75;4.82;;;;;;;;;;5052265;28;20481;-62
2023/10/01 05:50:19;;;;;;;7.30;4.70;;;;;;;;;;5049008;28;20468;-62
2023/10/01 05:52:46;;;;;;;11.80;5.15;;;;;;;;;;5054125;28;20891;-62
2023/10/01 05:55:15;;;;;;;7.97;4.95;;;;;;;;;;5051967;28;20420;-62
2023/10/01 05:57:42;;;;;;;9.60;5.28;;;;;;;;;;5052226;28;20416;-62
2023/10/01 06:00:16;;;;;;;7.95;4.55;;;;;;;;;;5052086;28;20413;-62
2023/10/01 06:02:48;;;;;;;7.15;4.72;;;;;;;;;;5051841;28;20415;-62
2023/10/01 06:05:32;;;;;;;10.00;5.50;;;;;;;;;;5048434;28;20405;-62
2023/10/01 06:07:59;;;;;;;9.48;5.28;;;;;;;;;;5048799;28;20798;-62
2023/10/01 06:10:35;;;;;;;7.97;5.38;;;;;;;;;;5052096;28;20417;-62
2023/10/01 06:13:06;;;;;;;10.15;4.82;;;;;;;;;;5049041;28;20429;-62
2023/10/01 06:15:33;;;;;;;8.32;5.22;;;;;;;;;;5051622;28;20907;-62
2023/10/01 06:18:04;;;;;;;9.98;5.40;;;;;;;;;;5051911;28;20891;-62
2023/10/01 06:20:33;;;;;;;9.70;5.13;;;;;;;;;;5051664;28;20413;-62
2023/10/01 06:23:00;;;;;;;9.75;5.05;;;;;;;;;;5053365;28;20784;-62
2023/10/01 06:25:41;;;;;;;10.43;5.03;;;;;;;;;;5051377;28;20426;-62
2023/10/01 06:28:09;;;;;;;10.07;5.47;;;;;;;;;;5049972;28;20545;-62
2023/10/01 06:30:39;;;;;;;10.00;5.80;;;;;;;;;;5051641;28;20412;-62
2023/10/01 06:33:09;;;;;;;9.17;5.27;;;;;;;;;;5051547;28;20963;-62
2023/10/01 06:35:37;;;;;;;10.02;5.43;;;;;;;;;;5047982;28;20409;-62
2023/10/01 06:38:04;;;;;;;9.45;5.40;;;;;;;;;;5051491;28;20409;-62
2023/10/01 06:40:31;;;;;;;10.38;5.22;;;;;;;;;;5051341;28;20906;-62
2023/10/01 06:42:59;;;;;;;9.65;5.30;;;;;;;;;;5051922;28;20413;-62
2023/10/01 06:45:39;;;;;;;10.75;5.53;;;;;;;;;;5051602;28;20517;-62
2023/10/01 06:48:09;;;;;;;11.63;5.82;;;;;;;;;;5051168;28;20485;-62
2023/10/01 06:50:37;;;;;;;10.13;5.47;;;;;;;;;;5051144;28;20474;-62
2023/10/01 06:53:04;;;;;;;9.83;5.63;;;;;;;;;;5055190;28;20483;-62
2023/10/01 06:55:32;;;;;;;12.27;5.80;;;;;;;;;;5052672;28;20462;-62
2023/10/01 06:58:00;;;;;;;9.65;5.60;;;;;;;;;;5051385;28;20412;-62
2023/10/01 07:00:33;;;;;;;10.45;5.55;;;;;;;;;;5051358;28;20489;-62
2023/10/01 07:03:16;;;;;;;11.63;5.60;;;;;;;;;;5051500;28;20480;-63
2023/10/01 07:05:46;;;;;;;12.60;6.50;;;;;;;;;;5049234;28;20484;-63
2023/10/01 07:08:13;;;;;;;12.10;5.93;;;;;;;;;;5047208;28;20466;-63
2023/10/01 07:10:40;;;;;;;11.95;6.13;;;;;;;;;;5051238;28;20826;-63
2023/10/01 07:13:08;;;;;;;15.40;6.43;;;;;;;;;;5051371;28;20409;-63
2023/10/01 07:15:39;;;;;;;10.45;5.70;;;;;;;;;;5050773;28;20409;-62
2023/10/01 07:18:15;;;;;;;11.47;6.20;;;;;;;;;;5050802;28;20474;-62
2023/10/01 07:20:44;;;;;;;12.70;6.28;;;;;;;;;;5050925;28;20457;-62
2023/10/01 07:23:13;;;;;;;11.85;5.60;;;;;;;;;;5050605;28;20529;-62
2023/10/01 07:25:42;;;;;;;12.35;6.25;;;;;;;;;;5050895;28;20517;-62
2023/10/01 07:28:12;;;;;;;12.30;6.32;;;;;;;;;;5047479;28;20405;-63
2023/10/01 07:30:46;;;;;;;10.82;6.15;;;;;;;;;;5050742;28;20417;-63
2023/10/01 07:33:14;;;;;;;13.35;6.35;;;;;;;;;;5047686;28;20413;-63
2023/10/01 07:35:43;;;;;;;14.40;6.87;;;;;;;;;;5050641;28;20413;-64
2023/10/01 07:38:13;;;;;;;11.35;6.32;;;;;;;;;;5047853;28;20405;-61
2023/10/01 07:40:57;;;;;;;11.15;5.95;;;;;;;;;;5045563;28;20463;-63
2023/10/01 07:43:24;;;;;;;11.75;6.10;;;;;;;;;;5052181;28;20828;-62
2023/10/01 07:45:58;;;;;;;12.20;6.43;;;;;;;;;;5054742;28;20972;-60
2023/10/01 07:48:27;;;;;;;12.77;6.70;;;;;;;;;;5056124;28;20425;-63
2023/10/01 07:50:55;;;;;;;12.23;6.70;;;;;;;;;;5058598;28;20409;-62
2023/10/01 07:53:24;;;;;;;11.98;6.60;;;;;;;;;;5060121;28;20413;-63
2023/10/01 07:55:51;;;;;;;11.03;6.63;;;;;;;;;;5053737;28;20413;-61
2023/10/01 07:58:24;;;;;;;11.43;6.15;;;;;;;;;;5053740;28;20950;-62
2023/10/01 08:00:58;;;;;;;13.07;6.83;;;;;;;;;;5050641;28;20431;-60
2023/10/01 08:03:32;;;;;;;13.18;6.47;;;;;;;;;;5053498;28;20405;-62
2023/10/01 08:06:15;;;;;;;12.32;6.85;;;;;;;;;;5053391;28;20459;-62
2023/10/01 08:08:48;;;;;;;14.23;6.82;;;;;;;;;;5051375;28;20421;-62
2023/10/01 08:13:56;;;;;;;12.63;6.55;;;;;;;;;;5049403;28;20401;-63
2023/10/01 08:16:23;;;;;;;13.63;6.88;;;;;;;;;;5053015;28;20440;-61
2023/10/01 08:18:57;;;;;;;12.18;6.63;;;;;;;;;;5053385;28;20491;-61
2023/10/01 08:21:36;;;;;;;12.70;6.90;;;;;;;;;;5054616;28;20958;-61
2023/10/01 08:24:09;;;;;;;14.27;6.70;;;;;;;;;;5052997;28;20409;-59
2023/10/01 08:26:43;;;;;;;13.68;7.15;;;;;;;;;;5053352;28;20420;-60
2023/10/01 08:29:14;;;;;;;14.10;7.27;;;;;;;;;;5053227;28;20461;-60
2023/10/01 08:34:27;;;;;;;13.65;6.82;;;;;;;;;;5050087;28;20919;-60
2023/10/01 08:36:55;;;;;;;12.73;6.65;;;;;;;;;;5053706;28;20448;-60
2023/10/01 08:42:09;;;;;;;14.00;7.00;;;;;;;;;;5049669;28;20501;-60
2023/10/01 08:44:44;;;;;;;13.63;6.80;;;;;;;;;;5053054;28;20406;-61
2023/10/01 08:47:26;;;;;;;13.97;7.07;;;;;;;;;;5053423;28;20428;-61
2023/10/01 08:49:53;;;;;;;15.80;7.38;;;;;;;;;;5052680;28;20430;-61
2023/10/01 08:52:25;;;;;;;13.48;6.72;;;;;;;;;;5054139;28;20965;-62
2023/10/01 08:54:54;;;;;;;13.00;6.90;;;;;;;;;;5051359;28;20508;-61
2023/10/01 08:57:36;;;;;;;15.15;7.00;;;;;;;;;;5052936;28;20409;-61
2023/10/01 09:00:14;;;;;;;13.10;7.13;;;;;;;;;;5052319;28;20412;-61
2023/10/01 09:02:41;;;;;;;12.05;6.70;;;;;;;;;;5050928;28;20405;-61
2023/10/01 09:05:11;;;;;;;13.80;6.90;;;;;;;;;;5051898;28;20409;-61
2023/10/01 09:07:41;;;;;;;13.45;6.45;;;;;;;;;;5052543;28;20428;-61
2023/10/01 09:10:17;;;;;;;12.93;6.97;;;;;;;;;;5048340;28;20435;-61
2023/10/01 09:12:46;;;;;;;14.60;6.80;;;;;;;;;;5052411;28;20828;-61
2023/10/01 09:15:23;;;;;;;15.13;7.05;;;;;;;;;;5054083;28;20459;-61
2023/10/01 09:17:57;;;;;;;14.73;6.60;;;;;;;;;;5047759;28;20412;-61
2023/10/01 09:20:42;;;;;;;13.93;7.20;;;;;;;;;;5050398;28;20803;-70
2023/10/01 09:23:09;;;;;;;14.10;6.80;;;;;;;;;;5055327;28;20435;-64
2023/10/01 09:25:41;;;;;;;15.18;7.13;;;;;;;;;;5048652;28;20895;-64
2023/10/01 09:28:22;;;;;;;14.57;6.80;;;;;;;;;;5051142;28;20445;-64
2023/10/01 09:30:59;;;;;;;14.40;7.25;;;;;;;;;;5051881;28;20425;-64
2023/10/01 09:33:26;;;;;;;12.25;6.72;;;;;;;;;;5051827;28;20911;-65
2023/10/01 09:35:59;;;;;;;13.18;6.75;;;;;;;;;;5051777;28;20409;-65
2023/10/01 09:38:28;;;;;;;12.15;6.60;;;;;;;;;;5051446;28;20483;-66
2023/10/01 09:40:57;;;;;;;12.10;6.77;;;;;;;;;;5051313;28;20421;-63
2023/10/01 09:43:29;;;;;;;11.67;6.37;;;;;;;;;;5051867;28;20413;-64
2023/10/01 09:45:58;;;;;;;13.48;6.75;;;;;;;;;;5047796;28;20412;-65
2023/10/01 09:48:36;;;;;;;13.35;6.85;;;;;;;;;;5051891;28;20413;-64
2023/10/01 09:51:07;;;;;;;13.20;7.07;;;;;;;;;;5048805;28;20405;-65
2023/10/01 09:53:43;;;;;;;12.57;6.63;;;;;;;;;;5054852;28;20534;-64
2023/10/01 09:56:13;;;;;;;13.68;6.78;;;;;;;;;;5051900;28;20449;-65
2023/10/01 09:58:46;;;;;;;13.30;7.07;;;;;;;;;;5048347;28;20409;-63
2023/10/01 10:01:17;;;;;;;12.82;6.70;;;;;;;;;;5050753;28;20452;-63
2023/10/01 10:03:44;;;;;;;12.18;6.70;;;;;;;;;;5051359;28;20421;-64
2023/10/01 10:06:13;;;;;;;12.73;6.80;;;;;;;;;;5050878;28;20818;-62
2023/10/01 10:08:40;;;;;;;13.63;6.90;;;;;;;;;;5051027;28;20505;-62
2023/10/01 10:11:13;;;;;;;13.60;6.80;;;;;;;;;;5050658;28;20907;-63
2023/10/01 10:13:46;;;;;;;13.35;6.53;;;;;;;;;;5048562;28;20406;-65
2023/10/01 10:16:32;;;;;;;12.23;6.50;;;;;;;;;;5050749;28;20417;-64
2023/10/01 10:19:20;;;;;;;14.18;6.57;;;;;;;;;;5051058;28;20508;-66
2023/10/01 10:22:05;;;;;;;14.00;6.65;;;;;;;;;;5047051;28;20421;-63
2023/10/01 10:24:33;;;;;;;13.02;6.68;;;;;;;;;;5049357;28;20424;-63
2023/10/01 10:27:03;;;;;;;10.70;6.27;;;;;;;;;;5050549;28;20787;-64
2023/10/01 10:29:46;;;;;;;12.07;6.40;;;;;;;;;;5048624;28;20426;-64
2023/10/01 10:32:14;;;;;;;13.75;6.57;;;;;;;;;;5047112;28;20413;-65
2023/10/01 10:35:14;;;;;;;14.73;6.45;;;;;;;;;;5049854;28;20420;-64
2023/10/01 10:37:47;;;;;;;15.80;6.38;;;;;;;;;;5050045;28;20487;-65
2023/10/01 10:40:22;;;;;;;12.43;6.82;;;;;;;;;;5050182;28;20436;-64
2023/10/01 10:43:08;;;;;;;12.90;6.95;;;;;;;;;;5049825;28;20421;-65
2023/10/01 10:45:43;;;;;;;12.82;6.90;;;;;;;;;;5048747;28;20406;-64
2023/10/01 10:48:14;;;;;;;14.95;6.50;;;;;;;;;;5047563;28;21303;-64
2023/10/01 10:50:44;;;;;;;11.82;6.40;;;;;;;;;;5049727;28;20436;-63
2023/10/01 10:53:19;;;;;;;13.45;6.53;;;;;;;;;;5051699;28;20416;-64
2023/10/01 10:55:56;;;;;;;11.93;6.22;;;;;;;;;;5046855;28;20421;-63
2023/10/01 10:58:24;;;;;;;14.73;6.65;;;;;;;;;;5050377;28;20405;-64
2023/10/01 11:00:52;;;;;;;15.02;6.40;;;;;;;;;;5049572;28;20409;-64
2023/10/01 11:03:40;;;;;;;13.82;6.65;;;;;;;;;;5050176;28;20413;-63
2023/10/01 11:06:29;;;;;;;13.60;6.63;;;;;;;;;;5049382;28;20409;-64
2023/10/01 11:08:57;;;;;;;13.38;6.25;;;;;;;;;;5043452;28;20454;-64
2023/10/01 11:11:27;;;;;;;12.05;6.40;;;;;;;;;;5049576;28;20472;-64
2023/10/01 11:14:00;;;;;;;13.18;6.85;;;;;;;;;;5046421;28;20414;-64
2023/10/01 11:16:33;;;;;;;12.68;6.93;;;;;;;;;;5049596;28;20409;-64
2023/10/01 11:19:12;;;;;;;12.80;6.68;;;;;;;;;;5049507;28;20420;-62
2023/10/01 11:21:44;;;;;;;13.63;6.60;;;;;;;;;;5048116;28;20475;-64
2023/10/01 11:24:12;;;;;;;12.02;6.28;;;;;;;;;;5057946;28;20413;-63
2023/10/01 11:26:54;;;;;;;14.93;6.50;;;;;;;;;;5052599;28;20410;-62
2023/10/01 11:29:22;;;;;;;12.10;6.47;;;;;;;;;;5047277;28;20931;-64
2023/10/01 11:31:51;;;;;;;12.50;6.80;;;;;;;;;;5051088;28;20500;-64
2023/10/01 11:34:26;;;;;;;11.43;6.45;;;;;;;;;;5050793;28;20784;-63
2023/10/01 11:36:56;;;;;;;13.93;6.20;;;;;;;;;;5050292;28;20452;-64
2023/10/01 11:39:38;;;;;;;14.02;6.95;;;;;;;;;;5049593;28;20417;-64
2023/10/01 11:42:19;;;;;;;15.07;6.68;;;;;;;;;;5047540;28;20405;-66
2023/10/01 11:44:52;;;;;;;13.43;6.20;;;;;;;;;;5047195;28;20761;-65
2023/10/01 11:47:31;;;;;;;13.35;6.32;;;;;;;;;;5049849;28;21158;-65
2023/10/01 11:50:07;;;;;;;14.30;6.70;;;;;;;;;;5049684;28;20432;-66
2023/10/01 11:52:35;;;;;;;14.40;6.40;;;;;;;;;;5051870;28;20504;-64
2023/10/01 11:55:16;;;;;;;14.00;6.93;;;;;;;;;;5049605;28;20417;-63
2023/10/01 11:57:51;;;;;;;13.18;7.22;;;;;;;;;;5049734;28;20441;-64
2023/10/01 12:00:52;;;;;;;12.63;6.73;;;;;;;;;;5049517;28;20413;-63
2023/10/01 12:03:10;;;;;;;13.57;6.90;;;;;;;;;;5048724;28;20412;-64
2023/10/01 12:05:42;;;;;;;12.47;7.00;;;;;;;;;;5049737;28;20421;-63
2023/10/01 12:08:14;;;;;;;15.43;7.15;;;;;;;;;;5050328;28;20782;-64
2023/10/01 12:10:41;;;;;;;11.15;6.38;;;;;;;;;;5049796;28;20460;-65
2023/10/01 12:13:10;;;;;;;12.45;6.97;;;;;;;;;;5048391;28;20992;-64
2023/10/01 12:15:40;;;;;;;15.35;7.57;;;;;;;;;;5049470;28;20424;-65
2023/10/01 12:18:13;;;;;;;13.88;6.93;;;;;;;;;;5049929;28;20420;-64
2023/10/01 12:20:47;;;;;;;13.15;7.15;;;;;;;;;;5049297;28;20409;-64
2023/10/01 12:23:15;;;;;;;12.85;7.20;;;;;;;;;;5049877;28;20486;-63
2023/10/01 12:25:45;;;;;;;12.32;6.88;;;;;;;;;;5048293;28;20413;-65
2023/10/01 12:28:17;;;;;;;16.00;7.10;;;;;;;;;;5049147;28;20432;-65
2023/10/01 12:30:44;;;;;;;14.57;7.30;;;;;;;;;;5051526;28;20425;-65
2023/10/01 12:33:12;;;;;;;13.00;7.00;;;;;;;;;;5052960;28;20421;-64
2023/10/01 12:35:39;;;;;;;13.38;7.10;;;;;;;;;;5053161;28;21115;-66
2023/10/01 12:38:26;;;;;;;15.25;7.45;;;;;;;;;;5052959;28;20417;-65
2023/10/01 12:40:53;;;;;;;14.32;7.25;;;;;;;;;;5049886;28;20401;-64
2023/10/01 12:43:36;;;;;;;14.57;7.25;;;;;;;;;;5053174;28;20471;-65
2023/10/01 12:46:04;;;;;;;14.50;7.93;;;;;;;;;;5051561;28;20467;-64
2023/10/01 12:48:31;;;;;;;14.93;7.75;;;;;;;;;;5053079;28;20775;-63
2023/10/01 12:51:00;;;;;;;14.27;7.72;;;;;;;;;;5053008;28;20478;-64
2023/10/01 12:53:28;;;;;;;15.50;7.45;;;;;;;;;;5055250;28;20463;-63
2023/10/01 12:55:56;;;;;;;15.75;8.40;;;;;;;;;;5052331;28;20418;-64
2023/10/01 12:58:35;;;;;;;15.07;7.55;;;;;;;;;;5052849;28;20413;-65
2023/10/01 13:01:02;;;;;;;15.15;7.57;;;;;;;;;;5052294;28;20413;-64
2023/10/01 13:03:29;;;;;;;16.45;8.75;;;;;;;;;;5052655;28;20455;-64
2023/10/01 13:05:56;;;;;;;15.07;8.02;;;;;;;;;;5054789;28;20423;-63
2023/10/01 13:08:28;;;;;;;14.63;7.80;;;;;;;;;;5052829;28;20409;-62
2023/10/01 13:10:57;;;;;;;17.60;8.15;;;;;;;;;;5052160;28;20425;-63
2023/10/01 13:13:30;;;;;;;15.23;8.43;;;;;;;;;;5052592;28;20409;-64
2023/10/01 13:15:58;;;;;;;16.80;8.40;;;;;;;;;;5052119;28;20413;-64
2023/10/01 13:18:29;;;;;;;15.90;8.60;;;;;;;;;;5052715;28;20421;-63
2023/10/01 13:21:06;;;;;;;15.35;8.00;;;;;;;;;;5052333;28;20405;-64
2023/10/01 13:23:41;;;;;;;16.75;8.57;;;;;;;;;;5062291;28;20446;-65
2023/10/01 13:26:14;;;;;;;16.77;7.97;;;;;;;;;;5052332;28;20405;-64
2023/10/01 13:28:46;;;;;;;15.10;7.97;;;;;;;;;;5052040;28;20504;-64
2023/10/01 13:31:35;;;;;;;17.55;9.05;;;;;;;;;;5048613;28;20902;-67
2023/10/01 13:34:20;;;;;;;16.10;7.97;;;;;;;;;;5049842;28;20409;-64
2023/10/01 13:36:51;;;;;;;15.60;7.93;;;;;;;;;;5052093;28;20468;-63
2023/10/01 13:39:25;;;;;;;14.80;7.90;;;;;;;;;;5045172;28;20416;-63
2023/10/01 14:09:48;;;;;;;16.05;8.25;;;;;;;;;;5050874;28;20396;-63
2023/10/01 14:12:41;;;;;;;15.97;8.10;;;;;;;;;;5051176;28;20452;-63
2023/10/01 14:15:20;;;;;;;14.87;8.40;;;;;;;;;;5050505;28;20828;-65
2023/10/01 14:17:52;;;;;;;16.48;8.68;;;;;;;;;;5050833;28;20414;-64
2023/10/01 14:20:37;;;;;;;15.27;8.70;;;;;;;;;;5050053;28;20903;-64
2023/10/01 14:23:07;;;;;;;16.25;8.45;;;;;;;;;;5051488;28;20444;-66
2023/10/01 14:25:52;;;;;;;15.13;8.38;;;;;;;;;;5049153;28;20413;-65
2023/10/01 14:28:19;;;;;;;17.08;8.07;;;;;;;;;;5048142;28;20416;-65
2023/10/01 14:30:50;;;;;;;16.23;8.85;;;;;;;;;;5050291;28;20836;-65
2023/10/01 14:33:25;;;;;;;14.52;8.48;;;;;;;;;;5047511;28;20409;-64
2023/10/01 14:35:53;;;;;;;16.15;8.82;;;;;;;;;;5050588;28;20414;-63
2023/10/01 14:38:21;;;;;;;15.35;8.70;;;;;;;;;;5050627;28;20419;-65
2023/10/01 14:40:56;;;;;;;15.90;8.53;;;;;;;;;;5050994;28;20500;-64
2023/10/01 14:43:24;;;;;;;15.57;8.43;;;;;;;;;;5051785;28;20449;-63
2023/10/01 14:45:53;;;;;;;16.03;8.77;;;;;;;;;;5050204;28;20487;-62
2023/10/01 14:48:22;;;;;;;17.25;9.15;;;;;;;;;;5050366;28;20424;-66
2023/10/01 14:50:56;;;;;;;13.93;8.45;;;;;;;;;;5049583;28;20898;-64
2023/10/01 14:53:23;;;;;;;14.82;8.10;;;;;;;;;;5053919;28;20409;-66
2023/10/01 14:55:54;;;;;;;16.52;9.05;;;;;;;;;;5050402;28;20445;-63
2023/10/01 14:58:22;;;;;;;16.98;9.07;;;;;;;;;;5050149;28;20993;-64
2023/10/01 15:00:57;;;;;;;16.73;9.07;;;;;;;;;;5049854;28;20409;-64
2023/10/01 15:03:33;;;;;;;16.45;8.80;;;;;;;;;;5049991;28;20413;-64
2023/10/01 15:06:01;;;;;;;18.10;8.88;;;;;;;;;;5047904;28;20417;-65
2023/10/01 15:08:29;;;;;;;17.10;8.73;;;;;;;;;;5050661;28;20420;-66
2023/10/01 15:10:57;;;;;;;16.55;8.75;;;;;;;;;;5051683;28;20915;-64
2023/10/01 15:13:34;;;;;;;15.50;8.75;;;;;;;;;;5053629;28;20421;-65
2023/10/01 15:16:03;;;;;;;16.73;8.98;;;;;;;;;;5050412;28;20484;-64
2023/10/01 15:18:33;;;;;;;14.52;8.52;;;;;;;;;;5051712;28;20471;-65
2023/10/01 15:21:10;;;;;;;15.68;8.52;;;;;;;;;;5052182;28;20409;-63
2023/10/01 15:23:44;;;;;;;14.13;8.63;;;;;;;;;;5055552;28;20413;-63
2023/10/01 15:26:11;;;;;;;14.32;8.40;;;;;;;;;;5049868;28;20409;-66
2023/10/01 15:28:38;;;;;;;15.18;8.95;;;;;;;;;;5050436;28;20413;-66
2023/10/01 15:31:10;;;;;;;15.43;8.80;;;;;;;;;;5049641;28;20527;-67
2023/10/01 15:33:38;;;;;;;15.70;8.93;;;;;;;;;;5050281;28;20416;-64
2023/10/01 15:36:05;;;;;;;15.50;8.73;;;;;;;;;;5049922;28;20949;-67
2023/10/01 15:38:35;;;;;;;16.13;9.03;;;;;;;;;;5050473;28;20449;-68
2023/10/01 15:41:02;;;;;;;15.20;8.95;;;;;;;;;;5049042;28;20414;-65
2023/10/01 15:43:29;;;;;;;16.42;8.73;;;;;;;;;;5046732;28;20416;-67
2023/10/01 15:46:11;;;;;;;14.70;8.15;;;;;;;;;;5049820;28;20413;-65
2023/10/01 15:48:48;;;;;;;15.00;8.35;;;;;;;;;;5047761;28;20477;-65